sensor_id;sensor_type;location;lat;lon;timestamp;P1;durP1;ratioP1;P2;durP2;ratioP2
14698;SDS011;7439;50.804;4.602;2023-03-01T00:01:37;19.83;;;15.47;;
14698;SDS011;7439;50.804;4.602;2023-03-01T00:04:05;21.17;;;16.53;;
14698;SDS011;7439;50.804;4.602;2023-03-01T00:06:32;22.90;;;16.07;;
14698;SDS011;7439;50.804;4.602;2023-03-01T00:09:00;21.73;;;15.83;;
14698;SDS011;7439;50.804;4.602;2023-03-01T00:11:28;22.60;;;15.43;;
14698;SDS011;7439;50.804;4.602;2023-03-01T00:13:56;20.37;;;15.13;;
14698;SDS011;7439;50.804;4.602;2023-03-01T00:16:26;20.47;;;15.80;;
14698;SDS011;7439;50.804;4.602;2023-03-01T00:18:54;21.10;;;15.80;;
14698;SDS011;7439;50.804;4.602;2023-03-01T00:21:21;18.23;;;15.00;;
14698;SDS011;7439;50.804;4.602;2023-03-01T00:23:49;20.50;;;15.80;;
14698;SDS011;7439;50.804;4.602;2023-03-01T00:26:17;19.97;;;14.67;;
14698;SDS011;7439;50.804;4.602;2023-03-01T00:28:45;17.40;;;14.93;;
14698;SDS011;7439;50.804;4.602;2023-03-01T00:31:13;21.03;;;15.27;;
14698;SDS011;7439;50.804;4.602;2023-03-01T00:33:42;20.67;;;14.37;;
14698;SDS011;7439;50.804;4.602;2023-03-01T00:36:10;20.37;;;15.00;;
14698;SDS011;7439;50.804;4.602;2023-03-01T00:38:39;22.97;;;15.93;;
14698;SDS011;7439;50.804;4.602;2023-03-01T00:41:07;20.57;;;15.80;;
14698;SDS011;7439;50.804;4.602;2023-03-01T00:43:35;20.83;;;15.83;;
14698;SDS011;7439;50.804;4.602;2023-03-01T00:46:02;21.13;;;16.50;;
14698;SDS011;7439;50.804;4.602;2023-03-01T00:48:31;23.70;;;16.33;;
14698;SDS011;7439;50.804;4.602;2023-03-01T00:51:05;18.87;;;16.43;;
14698;SDS011;7439;50.804;4.602;2023-03-01T00:53:32;21.33;;;15.53;;
14698;SDS011;7439;50.804;4.602;2023-03-01T00:56:00;19.50;;;14.97;;
14698;SDS011;7439;50.804;4.602;2023-03-01T00:58:27;17.80;;;14.60;;
14698;SDS011;7439;50.804;4.602;2023-03-01T01:00:55;19.03;;;15.07;;
14698;SDS011;7439;50.804;4.602;2023-03-01T01:03:23;21.50;;;16.93;;
14698;SDS011;7439;50.804;4.602;2023-03-01T01:05:51;23.70;;;16.33;;
14698;SDS011;7439;50.804;4.602;2023-03-01T01:08:20;18.47;;;15.73;;
14698;SDS011;7439;50.804;4.602;2023-03-01T01:10:48;18.87;;;15.57;;
14698;SDS011;7439;50.804;4.602;2023-03-01T01:13:15;22.53;;;15.33;;
14698;SDS011;7439;50.804;4.602;2023-03-01T01:15:43;19.63;;;15.37;;
14698;SDS011;7439;50.804;4.602;2023-03-01T01:18:10;17.87;;;15.40;;
14698;SDS011;7439;50.804;4.602;2023-03-01T01:20:38;23.33;;;15.60;;
14698;SDS011;7439;50.804;4.602;2023-03-01T01:23:05;17.87;;;14.90;;
14698;SDS011;7439;50.804;4.602;2023-03-01T01:25:35;21.57;;;15.33;;
14698;SDS011;7439;50.804;4.602;2023-03-01T01:28:03;21.07;;;14.30;;
14698;SDS011;7439;50.804;4.602;2023-03-01T01:30:30;20.80;;;14.70;;
14698;SDS011;7439;50.804;4.602;2023-03-01T01:32:58;17.27;;;14.57;;
14698;SDS011;7439;50.804;4.602;2023-03-01T01:35:25;17.40;;;14.97;;
14698;SDS011;7439;50.804;4.602;2023-03-01T01:37:52;19.13;;;15.10;;
14698;SDS011;7439;50.804;4.602;2023-03-01T01:40:20;18.87;;;14.43;;
14698;SDS011;7439;50.804;4.602;2023-03-01T01:42:48;16.23;;;13.97;;
14698;SDS011;7439;50.804;4.602;2023-03-01T01:45:27;19.63;;;14.70;;
14698;SDS011;7439;50.804;4.602;2023-03-01T01:47:56;20.10;;;14.57;;
14698;SDS011;7439;50.804;4.602;2023-03-01T01:50:25;18.27;;;14.07;;
14698;SDS011;7439;50.804;4.602;2023-03-01T01:53:03;22.10;;;16.07;;
14698;SDS011;7439;50.804;4.602;2023-03-01T01:55:32;19.93;;;14.00;;
14698;SDS011;7439;50.804;4.602;2023-03-01T01:58:02;19.47;;;14.53;;
14698;SDS011;7439;50.804;4.602;2023-03-01T02:00:30;21.07;;;14.97;;
14698;SDS011;7439;50.804;4.602;2023-03-01T02:02:58;16.57;;;13.10;;
14698;SDS011;7439;50.804;4.602;2023-03-01T02:05:28;20.33;;;14.50;;
14698;SDS011;7439;50.804;4.602;2023-03-01T02:07:58;18.00;;;14.33;;
14698;SDS011;7439;50.804;4.602;2023-03-01T02:10:26;19.20;;;14.77;;
14698;SDS011;7439;50.804;4.602;2023-03-01T02:12:54;17.37;;;14.07;;
14698;SDS011;7439;50.804;4.602;2023-03-01T02:15:24;20.10;;;14.77;;
14698;SDS011;7439;50.804;4.602;2023-03-01T02:17:51;22.20;;;15.27;;
14698;SDS011;7439;50.804;4.602;2023-03-01T02:20:20;18.40;;;14.30;;
14698;SDS011;7439;50.804;4.602;2023-03-01T02:22:50;19.97;;;14.73;;
14698;SDS011;7439;50.804;4.602;2023-03-01T02:25:24;21.07;;;14.77;;
14698;SDS011;7439;50.804;4.602;2023-03-01T02:27:53;19.00;;;14.03;;
14698;SDS011;7439;50.804;4.602;2023-03-01T02:30:26;20.87;;;14.73;;
14698;SDS011;7439;50.804;4.602;2023-03-01T02:32:54;18.23;;;14.63;;
14698;SDS011;7439;50.804;4.602;2023-03-01T02:35:27;16.47;;;13.50;;
14698;SDS011;7439;50.804;4.602;2023-03-01T02:37:57;23.77;;;16.03;;
14698;SDS011;7439;50.804;4.602;2023-03-01T02:40:25;17.10;;;14.43;;
14698;SDS011;7439;50.804;4.602;2023-03-01T02:42:55;18.20;;;14.80;;
14698;SDS011;7439;50.804;4.602;2023-03-01T02:45:24;19.83;;;15.67;;
14698;SDS011;7439;50.804;4.602;2023-03-01T02:47:54;18.27;;;14.83;;
14698;SDS011;7439;50.804;4.602;2023-03-01T02:50:25;18.90;;;15.20;;
14698;SDS011;7439;50.804;4.602;2023-03-01T02:53:04;21.00;;;16.37;;
14698;SDS011;7439;50.804;4.602;2023-03-01T02:55:32;18.93;;;15.20;;
14698;SDS011;7439;50.804;4.602;2023-03-01T02:57:59;20.53;;;16.40;;
14698;SDS011;7439;50.804;4.602;2023-03-01T03:00:28;21.23;;;16.47;;
14698;SDS011;7439;50.804;4.602;2023-03-01T03:02:59;19.33;;;15.73;;
14698;SDS011;7439;50.804;4.602;2023-03-01T03:05:27;21.03;;;17.27;;
14698;SDS011;7439;50.804;4.602;2023-03-01T03:07:56;23.87;;;16.87;;
14698;SDS011;7439;50.804;4.602;2023-03-01T03:10:24;19.70;;;15.47;;
14698;SDS011;7439;50.804;4.602;2023-03-01T03:12:53;19.67;;;15.67;;
14698;SDS011;7439;50.804;4.602;2023-03-01T03:15:21;18.13;;;14.30;;
14698;SDS011;7439;50.804;4.602;2023-03-01T03:17:49;20.47;;;14.80;;
14698;SDS011;7439;50.804;4.602;2023-03-01T03:20:19;20.83;;;15.93;;
14698;SDS011;7439;50.804;4.602;2023-03-01T03:22:47;20.50;;;15.27;;
14698;SDS011;7439;50.804;4.602;2023-03-01T03:25:16;18.87;;;15.33;;
14698;SDS011;7439;50.804;4.602;2023-03-01T03:27:44;21.27;;;16.73;;
14698;SDS011;7439;50.804;4.602;2023-03-01T03:30:12;21.83;;;16.20;;
14698;SDS011;7439;50.804;4.602;2023-03-01T03:32:41;21.60;;;15.60;;
14698;SDS011;7439;50.804;4.602;2023-03-01T03:35:19;22.53;;;16.33;;
14698;SDS011;7439;50.804;4.602;2023-03-01T03:37:47;20.87;;;16.73;;
14698;SDS011;7439;50.804;4.602;2023-03-01T03:40:32;22.60;;;16.53;;
14698;SDS011;7439;50.804;4.602;2023-03-01T03:43:00;23.07;;;15.10;;
14698;SDS011;7439;50.804;4.602;2023-03-01T03:45:27;20.20;;;15.90;;
14698;SDS011;7439;50.804;4.602;2023-03-01T03:47:58;23.27;;;15.50;;
14698;SDS011;7439;50.804;4.602;2023-03-01T03:50:27;16.67;;;13.97;;
14698;SDS011;7439;50.804;4.602;2023-03-01T03:52:54;19.60;;;15.83;;
14698;SDS011;7439;50.804;4.602;2023-03-01T03:55:22;20.53;;;15.17;;
14698;SDS011;7439;50.804;4.602;2023-03-01T03:57:53;18.80;;;14.13;;
14698;SDS011;7439;50.804;4.602;2023-03-01T04:00:21;21.90;;;14.57;;
14698;SDS011;7439;50.804;4.602;2023-03-01T04:02:49;22.20;;;15.60;;
14698;SDS011;7439;50.804;4.602;2023-03-01T04:05:17;21.83;;;14.73;;
14698;SDS011;7439;50.804;4.602;2023-03-01T04:07:46;19.53;;;14.50;;
14698;SDS011;7439;50.804;4.602;2023-03-01T04:10:14;21.37;;;15.30;;
14698;SDS011;7439;50.804;4.602;2023-03-01T04:12:42;20.97;;;15.40;;
14698;SDS011;7439;50.804;4.602;2023-03-01T04:15:10;19.53;;;15.27;;
14698;SDS011;7439;50.804;4.602;2023-03-01T04:17:41;21.87;;;16.17;;
14698;SDS011;7439;50.804;4.602;2023-03-01T04:20:10;19.70;;;15.67;;
14698;SDS011;7439;50.804;4.602;2023-03-01T04:22:37;20.60;;;14.43;;
14698;SDS011;7439;50.804;4.602;2023-03-01T04:25:07;20.77;;;14.97;;
14698;SDS011;7439;50.804;4.602;2023-03-01T04:27:39;23.73;;;15.83;;
14698;SDS011;7439;50.804;4.602;2023-03-01T04:30:07;22.83;;;16.33;;
14698;SDS011;7439;50.804;4.602;2023-03-01T04:32:34;20.13;;;14.53;;
14698;SDS011;7439;50.804;4.602;2023-03-01T04:35:02;19.60;;;14.33;;
14698;SDS011;7439;50.804;4.602;2023-03-01T04:37:29;19.23;;;14.73;;
14698;SDS011;7439;50.804;4.602;2023-03-01T04:39:57;20.50;;;15.43;;
14698;SDS011;7439;50.804;4.602;2023-03-01T04:42:25;18.27;;;14.33;;
14698;SDS011;7439;50.804;4.602;2023-03-01T04:44:53;25.27;;;15.00;;
14698;SDS011;7439;50.804;4.602;2023-03-01T04:47:20;18.50;;;14.43;;
14698;SDS011;7439;50.804;4.602;2023-03-01T04:49:48;20.33;;;14.53;;
14698;SDS011;7439;50.804;4.602;2023-03-01T04:52:15;21.70;;;14.40;;
14698;SDS011;7439;50.804;4.602;2023-03-01T04:54:42;21.90;;;14.57;;
14698;SDS011;7439;50.804;4.602;2023-03-01T04:57:09;21.83;;;14.63;;
14698;SDS011;7439;50.804;4.602;2023-03-01T04:59:38;20.43;;;15.33;;
14698;SDS011;7439;50.804;4.602;2023-03-01T05:02:06;23.80;;;15.03;;
14698;SDS011;7439;50.804;4.602;2023-03-01T05:04:33;22.23;;;15.67;;
14698;SDS011;7439;50.804;4.602;2023-03-01T05:07:01;20.60;;;14.83;;
14698;SDS011;7439;50.804;4.602;2023-03-01T05:09:28;23.07;;;14.67;;
14698;SDS011;7439;50.804;4.602;2023-03-01T05:11:55;18.50;;;14.80;;
14698;SDS011;7439;50.804;4.602;2023-03-01T05:14:23;22.97;;;15.30;;
14698;SDS011;7439;50.804;4.602;2023-03-01T05:16:52;21.37;;;15.97;;
14698;SDS011;7439;50.804;4.602;2023-03-01T05:19:19;18.67;;;13.90;;
14698;SDS011;7439;50.804;4.602;2023-03-01T05:21:47;22.63;;;15.67;;
14698;SDS011;7439;50.804;4.602;2023-03-01T05:24:31;19.13;;;15.27;;
14698;SDS011;7439;50.804;4.602;2023-03-01T05:26:59;23.87;;;14.47;;
14698;SDS011;7439;50.804;4.602;2023-03-01T05:29:27;20.53;;;15.47;;
14698;SDS011;7439;50.804;4.602;2023-03-01T05:31:57;19.20;;;14.57;;
14698;SDS011;7439;50.804;4.602;2023-03-01T05:34:24;24.53;;;14.77;;
14698;SDS011;7439;50.804;4.602;2023-03-01T05:36:52;21.03;;;15.63;;
14698;SDS011;7439;50.804;4.602;2023-03-01T05:39:20;18.67;;;15.00;;
14698;SDS011;7439;50.804;4.602;2023-03-01T05:41:48;20.13;;;14.17;;
14698;SDS011;7439;50.804;4.602;2023-03-01T05:44:16;21.40;;;15.90;;
14698;SDS011;7439;50.804;4.602;2023-03-01T05:46:43;21.97;;;15.27;;
14698;SDS011;7439;50.804;4.602;2023-03-01T05:49:12;18.87;;;13.70;;
14698;SDS011;7439;50.804;4.602;2023-03-01T05:51:39;21.40;;;14.97;;
14698;SDS011;7439;50.804;4.602;2023-03-01T05:54:07;19.67;;;15.37;;
14698;SDS011;7439;50.804;4.602;2023-03-01T05:56:35;21.97;;;16.50;;
14698;SDS011;7439;50.804;4.602;2023-03-01T05:59:03;23.90;;;17.00;;
14698;SDS011;7439;50.804;4.602;2023-03-01T06:01:31;22.03;;;15.67;;
14698;SDS011;7439;50.804;4.602;2023-03-01T06:03:58;21.63;;;15.37;;
14698;SDS011;7439;50.804;4.602;2023-03-01T06:06:28;19.63;;;15.07;;
14698;SDS011;7439;50.804;4.602;2023-03-01T06:08:55;16.93;;;14.53;;
14698;SDS011;7439;50.804;4.602;2023-03-01T06:11:22;23.07;;;15.20;;
14698;SDS011;7439;50.804;4.602;2023-03-01T06:13:50;20.97;;;15.80;;
14698;SDS011;7439;50.804;4.602;2023-03-01T06:16:17;18.70;;;14.60;;
14698;SDS011;7439;50.804;4.602;2023-03-01T06:18:44;23.90;;;14.97;;
14698;SDS011;7439;50.804;4.602;2023-03-01T06:21:12;23.23;;;16.83;;
14698;SDS011;7439;50.804;4.602;2023-03-01T06:23:41;18.23;;;15.27;;
14698;SDS011;7439;50.804;4.602;2023-03-01T06:26:08;21.37;;;16.03;;
14698;SDS011;7439;50.804;4.602;2023-03-01T06:28:35;22.03;;;15.20;;
14698;SDS011;7439;50.804;4.602;2023-03-01T06:31:03;24.80;;;15.27;;
14698;SDS011;7439;50.804;4.602;2023-03-01T06:33:33;19.93;;;15.17;;
14698;SDS011;7439;50.804;4.602;2023-03-01T06:36:01;25.53;;;16.50;;
14698;SDS011;7439;50.804;4.602;2023-03-01T06:38:28;27.93;;;15.30;;
14698;SDS011;7439;50.804;4.602;2023-03-01T06:40:57;21.20;;;15.67;;
14698;SDS011;7439;50.804;4.602;2023-03-01T06:43:26;23.03;;;16.17;;
14698;SDS011;7439;50.804;4.602;2023-03-01T06:45:53;21.23;;;15.57;;
14698;SDS011;7439;50.804;4.602;2023-03-01T06:48:21;23.33;;;15.83;;
14698;SDS011;7439;50.804;4.602;2023-03-01T06:50:48;23.23;;;17.13;;
14698;SDS011;7439;50.804;4.602;2023-03-01T06:53:15;27.90;;;16.90;;
14698;SDS011;7439;50.804;4.602;2023-03-01T06:55:43;24.93;;;17.13;;
14698;SDS011;7439;50.804;4.602;2023-03-01T06:58:12;24.67;;;18.23;;
14698;SDS011;7439;50.804;4.602;2023-03-01T07:00:39;25.87;;;16.73;;
14698;SDS011;7439;50.804;4.602;2023-03-01T07:03:08;20.60;;;15.97;;
14698;SDS011;7439;50.804;4.602;2023-03-01T07:05:35;24.73;;;18.10;;
14698;SDS011;7439;50.804;4.602;2023-03-01T07:08:02;23.90;;;17.20;;
14698;SDS011;7439;50.804;4.602;2023-03-01T07:10:30;24.23;;;17.57;;
14698;SDS011;7439;50.804;4.602;2023-03-01T07:12:57;25.27;;;16.87;;
14698;SDS011;7439;50.804;4.602;2023-03-01T07:15:26;24.67;;;17.20;;
14698;SDS011;7439;50.804;4.602;2023-03-01T07:17:54;24.97;;;18.00;;
14698;SDS011;7439;50.804;4.602;2023-03-01T07:20:22;31.67;;;18.40;;
14698;SDS011;7439;50.804;4.602;2023-03-01T07:22:50;25.73;;;18.17;;
14698;SDS011;7439;50.804;4.602;2023-03-01T07:25:17;24.67;;;18.37;;
14698;SDS011;7439;50.804;4.602;2023-03-01T07:27:48;27.20;;;18.53;;
14698;SDS011;7439;50.804;4.602;2023-03-01T07:30:16;25.63;;;19.63;;
14698;SDS011;7439;50.804;4.602;2023-03-01T07:32:45;24.07;;;18.37;;
14698;SDS011;7439;50.804;4.602;2023-03-01T07:35:12;26.50;;;20.43;;
14698;SDS011;7439;50.804;4.602;2023-03-01T07:37:40;34.50;;;19.50;;
14698;SDS011;7439;50.804;4.602;2023-03-01T07:40:09;26.23;;;19.50;;
14698;SDS011;7439;50.804;4.602;2023-03-01T07:42:36;27.97;;;19.63;;
14698;SDS011;7439;50.804;4.602;2023-03-01T07:45:04;26.60;;;20.10;;
14698;SDS011;7439;50.804;4.602;2023-03-01T07:47:32;28.47;;;19.97;;
14698;SDS011;7439;50.804;4.602;2023-03-01T07:50:02;27.03;;;20.67;;
14698;SDS011;7439;50.804;4.602;2023-03-01T07:52:29;28.03;;;20.67;;
14698;SDS011;7439;50.804;4.602;2023-03-01T07:54:57;23.83;;;18.43;;
14698;SDS011;7439;50.804;4.602;2023-03-01T07:57:24;23.13;;;18.40;;
14698;SDS011;7439;50.804;4.602;2023-03-01T07:59:52;21.77;;;18.10;;
14698;SDS011;7439;50.804;4.602;2023-03-01T08:02:19;23.60;;;16.60;;
14698;SDS011;7439;50.804;4.602;2023-03-01T08:04:47;19.70;;;17.23;;
14698;SDS011;7439;50.804;4.602;2023-03-01T08:07:15;20.83;;;16.10;;
14698;SDS011;7439;50.804;4.602;2023-03-01T08:09:43;17.90;;;16.00;;
14698;SDS011;7439;50.804;4.602;2023-03-01T08:12:10;16.97;;;15.23;;
14698;SDS011;7439;50.804;4.602;2023-03-01T08:14:37;16.77;;;13.93;;
14698;SDS011;7439;50.804;4.602;2023-03-01T08:17:05;14.67;;;13.10;;
14698;SDS011;7439;50.804;4.602;2023-03-01T08:19:32;15.53;;;13.90;;
14698;SDS011;7439;50.804;4.602;2023-03-01T08:22:00;15.10;;;13.47;;
14698;SDS011;7439;50.804;4.602;2023-03-01T08:24:29;16.80;;;13.70;;
14698;SDS011;7439;50.804;4.602;2023-03-01T08:26:57;13.40;;;12.13;;
14698;SDS011;7439;50.804;4.602;2023-03-01T08:29:24;16.43;;;13.27;;
14698;SDS011;7439;50.804;4.602;2023-03-01T08:31:52;13.53;;;12.30;;
14698;SDS011;7439;50.804;4.602;2023-03-01T08:34:19;13.60;;;12.30;;
14698;SDS011;7439;50.804;4.602;2023-03-01T08:36:46;13.23;;;11.83;;
14698;SDS011;7439;50.804;4.602;2023-03-01T08:39:15;18.80;;;12.30;;
14698;SDS011;7439;50.804;4.602;2023-03-01T08:41:45;14.80;;;11.27;;
14698;SDS011;7439;50.804;4.602;2023-03-01T08:44:12;14.47;;;12.83;;
14698;SDS011;7439;50.804;4.602;2023-03-01T08:46:41;13.07;;;11.73;;
14698;SDS011;7439;50.804;4.602;2023-03-01T08:49:11;13.87;;;12.47;;
14698;SDS011;7439;50.804;4.602;2023-03-01T08:51:39;13.73;;;11.70;;
14698;SDS011;7439;50.804;4.602;2023-03-01T08:54:07;13.50;;;12.10;;
14698;SDS011;7439;50.804;4.602;2023-03-01T08:56:37;13.53;;;12.07;;
14698;SDS011;7439;50.804;4.602;2023-03-01T08:59:06;12.30;;;11.17;;
14698;SDS011;7439;50.804;4.602;2023-03-01T09:01:34;13.60;;;12.13;;
14698;SDS011;7439;50.804;4.602;2023-03-01T09:04:02;13.00;;;11.70;;
14698;SDS011;7439;50.804;4.602;2023-03-01T09:06:30;12.83;;;11.57;;
14698;SDS011;7439;50.804;4.602;2023-03-01T09:08:58;14.70;;;11.37;;
14698;SDS011;7439;50.804;4.602;2023-03-01T09:11:26;12.27;;;11.07;;
14698;SDS011;7439;50.804;4.602;2023-03-01T09:13:54;13.30;;;12.00;;
14698;SDS011;7439;50.804;4.602;2023-03-01T09:16:23;12.43;;;11.23;;
14698;SDS011;7439;50.804;4.602;2023-03-01T09:18:51;12.83;;;11.53;;
14698;SDS011;7439;50.804;4.602;2023-03-01T09:21:20;12.57;;;11.27;;
14698;SDS011;7439;50.804;4.602;2023-03-01T09:23:48;12.73;;;11.43;;
14698;SDS011;7439;50.804;4.602;2023-03-01T09:26:16;13.37;;;11.67;;
14698;SDS011;7439;50.804;4.602;2023-03-01T09:28:44;14.17;;;10.93;;
14698;SDS011;7439;50.804;4.602;2023-03-01T09:31:11;13.23;;;11.87;;
14698;SDS011;7439;50.804;4.602;2023-03-01T09:33:41;14.57;;;11.63;;
14698;SDS011;7439;50.804;4.602;2023-03-01T09:36:10;15.07;;;12.23;;
14698;SDS011;7439;50.804;4.602;2023-03-01T09:38:37;12.97;;;11.83;;
14698;SDS011;7439;50.804;4.602;2023-03-01T09:41:09;13.40;;;11.63;;
14698;SDS011;7439;50.804;4.602;2023-03-01T09:43:39;13.63;;;12.20;;
14698;SDS011;7439;50.804;4.602;2023-03-01T09:46:09;13.20;;;11.93;;
14698;SDS011;7439;50.804;4.602;2023-03-01T09:48:38;13.63;;;12.33;;
14698;SDS011;7439;50.804;4.602;2023-03-01T09:51:12;14.47;;;11.57;;
14698;SDS011;7439;50.804;4.602;2023-03-01T09:53:42;14.00;;;12.30;;
14698;SDS011;7439;50.804;4.602;2023-03-01T09:56:12;12.53;;;11.23;;
14698;SDS011;7439;50.804;4.602;2023-03-01T09:58:47;13.67;;;12.30;;
14698;SDS011;7439;50.804;4.602;2023-03-01T10:01:23;14.33;;;12.93;;
14698;SDS011;7439;50.804;4.602;2023-03-01T10:04:00;13.80;;;12.20;;
14698;SDS011;7439;50.804;4.602;2023-03-01T10:06:30;12.83;;;11.70;;
14698;SDS011;7439;50.804;4.602;2023-03-01T10:08:58;14.27;;;12.20;;
14698;SDS011;7439;50.804;4.602;2023-03-01T10:11:28;14.73;;;12.97;;
14698;SDS011;7439;50.804;4.602;2023-03-01T10:13:58;13.30;;;11.83;;
14698;SDS011;7439;50.804;4.602;2023-03-01T10:16:27;13.37;;;12.17;;
14698;SDS011;7439;50.804;4.602;2023-03-01T10:18:58;13.40;;;12.00;;
14698;SDS011;7439;50.804;4.602;2023-03-01T10:21:26;13.50;;;12.10;;
14698;SDS011;7439;50.804;4.602;2023-03-01T10:23:56;12.73;;;11.17;;
14698;SDS011;7439;50.804;4.602;2023-03-01T10:26:35;12.27;;;11.07;;
14698;SDS011;7439;50.804;4.602;2023-03-01T10:29:05;14.10;;;11.87;;
14698;SDS011;7439;50.804;4.602;2023-03-01T10:31:38;13.17;;;11.97;;
14698;SDS011;7439;50.804;4.602;2023-03-01T10:34:08;12.43;;;11.43;;
14698;SDS011;7439;50.804;4.602;2023-03-01T10:36:36;12.90;;;11.73;;
14698;SDS011;7439;50.804;4.602;2023-03-01T10:39:11;11.83;;;10.63;;
14698;SDS011;7439;50.804;4.602;2023-03-01T10:41:44;11.60;;;10.50;;
14698;SDS011;7439;50.804;4.602;2023-03-01T10:44:34;12.77;;;11.43;;
14698;SDS011;7439;50.804;4.602;2023-03-01T10:47:02;11.73;;;10.63;;
14698;SDS011;7439;50.804;4.602;2023-03-01T10:49:29;12.07;;;10.83;;
14698;SDS011;7439;50.804;4.602;2023-03-01T10:51:57;13.77;;;12.43;;
14698;SDS011;7439;50.804;4.602;2023-03-01T10:54:39;12.40;;;11.20;;
14698;SDS011;7439;50.804;4.602;2023-03-01T10:57:10;13.70;;;12.33;;
14698;SDS011;7439;50.804;4.602;2023-03-01T11:00:00;12.83;;;11.63;;
14698;SDS011;7439;50.804;4.602;2023-03-01T11:02:29;12.50;;;11.30;;
14698;SDS011;7439;50.804;4.602;2023-03-01T11:04:58;12.60;;;11.23;;
14698;SDS011;7439;50.804;4.602;2023-03-01T11:07:26;12.70;;;11.20;;
14698;SDS011;7439;50.804;4.602;2023-03-01T11:09:55;12.70;;;11.43;;
14698;SDS011;7439;50.804;4.602;2023-03-01T11:12:22;13.47;;;11.53;;
14698;SDS011;7439;50.804;4.602;2023-03-01T11:14:51;12.53;;;11.30;;
14698;SDS011;7439;50.804;4.602;2023-03-01T11:17:21;13.03;;;11.83;;
14698;SDS011;7439;50.804;4.602;2023-03-01T11:19:59;12.03;;;10.93;;
14698;SDS011;7439;50.804;4.602;2023-03-01T11:22:28;13.97;;;11.93;;
14698;SDS011;7439;50.804;4.602;2023-03-01T11:24:59;11.97;;;10.97;;
14698;SDS011;7439;50.804;4.602;2023-03-01T11:27:27;12.57;;;11.47;;
14698;SDS011;7439;50.804;4.602;2023-03-01T11:29:55;11.60;;;10.40;;
14698;SDS011;7439;50.804;4.602;2023-03-01T11:32:25;12.07;;;10.83;;
14698;SDS011;7439;50.804;4.602;2023-03-01T11:34:54;11.53;;;10.37;;
14698;SDS011;7439;50.804;4.602;2023-03-01T11:37:28;11.53;;;10.53;;
14698;SDS011;7439;50.804;4.602;2023-03-01T11:40:05;12.10;;;10.20;;
14698;SDS011;7439;50.804;4.602;2023-03-01T11:42:42;12.70;;;11.40;;
14698;SDS011;7439;50.804;4.602;2023-03-01T11:45:13;11.60;;;10.07;;
14698;SDS011;7439;50.804;4.602;2023-03-01T11:47:44;11.17;;;10.17;;
14698;SDS011;7439;50.804;4.602;2023-03-01T11:50:19;13.07;;;11.77;;
14698;SDS011;7439;50.804;4.602;2023-03-01T11:52:54;11.30;;;10.17;;
14698;SDS011;7439;50.804;4.602;2023-03-01T11:55:29;11.20;;;10.20;;
14698;SDS011;7439;50.804;4.602;2023-03-01T11:58:01;11.73;;;9.97;;
14698;SDS011;7439;50.804;4.602;2023-03-01T12:00:42;11.33;;;10.27;;
14698;SDS011;7439;50.804;4.602;2023-03-01T12:06:01;11.77;;;10.70;;
14698;SDS011;7439;50.804;4.602;2023-03-01T12:08:33;12.57;;;9.90;;
14698;SDS011;7439;50.804;4.602;2023-03-01T12:11:06;10.93;;;9.83;;
14698;SDS011;7439;50.804;4.602;2023-03-01T12:13:46;11.37;;;10.37;;
14698;SDS011;7439;50.804;4.602;2023-03-01T12:16:21;11.00;;;10.00;;
14698;SDS011;7439;50.804;4.602;2023-03-01T12:18:57;11.93;;;10.43;;
14698;SDS011;7439;50.804;4.602;2023-03-01T12:21:30;10.50;;;9.60;;
14698;SDS011;7439;50.804;4.602;2023-03-01T12:24:08;10.33;;;9.33;;
14698;SDS011;7439;50.804;4.602;2023-03-01T12:26:42;11.40;;;10.40;;
14698;SDS011;7439;50.804;4.602;2023-03-01T12:29:19;10.93;;;9.93;;
14698;SDS011;7439;50.804;4.602;2023-03-01T12:31:53;10.37;;;9.50;;
14698;SDS011;7439;50.804;4.602;2023-03-01T12:34:33;11.30;;;10.23;;
14698;SDS011;7439;50.804;4.602;2023-03-01T12:37:08;11.13;;;10.13;;
14698;SDS011;7439;50.804;4.602;2023-03-01T12:39:42;11.37;;;10.23;;
14698;SDS011;7439;50.804;4.602;2023-03-01T12:42:14;9.70;;;8.80;;
14698;SDS011;7439;50.804;4.602;2023-03-01T12:44:49;10.33;;;9.33;;
14698;SDS011;7439;50.804;4.602;2023-03-01T12:47:25;10.73;;;9.13;;
14698;SDS011;7439;50.804;4.602;2023-03-01T12:49:54;9.33;;;8.43;;
14698;SDS011;7439;50.804;4.602;2023-03-01T12:52:24;9.50;;;8.57;;
14698;SDS011;7439;50.804;4.602;2023-03-01T12:54:55;11.97;;;10.77;;
14698;SDS011;7439;50.804;4.602;2023-03-01T12:57:26;12.23;;;11.13;;
14698;SDS011;7439;50.804;4.602;2023-03-01T13:00:05;10.93;;;9.87;;
14698;SDS011;7439;50.804;4.602;2023-03-01T13:02:37;11.07;;;9.97;;
14698;SDS011;7439;50.804;4.602;2023-03-01T13:05:13;12.93;;;10.07;;
14698;SDS011;7439;50.804;4.602;2023-03-01T13:07:48;11.30;;;10.30;;
14698;SDS011;7439;50.804;4.602;2023-03-01T13:10:20;11.90;;;9.97;;
14698;SDS011;7439;50.804;4.602;2023-03-01T13:13:00;11.60;;;10.37;;
14698;SDS011;7439;50.804;4.602;2023-03-01T13:15:32;10.63;;;9.53;;
14698;SDS011;7439;50.804;4.602;2023-03-01T13:18:00;10.20;;;9.30;;
14698;SDS011;7439;50.804;4.602;2023-03-01T13:20:30;10.27;;;9.37;;
14698;SDS011;7439;50.804;4.602;2023-03-01T13:23:03;9.23;;;8.33;;
14698;SDS011;7439;50.804;4.602;2023-03-01T13:25:31;10.17;;;9.27;;
14698;SDS011;7439;50.804;4.602;2023-03-01T13:30:45;9.40;;;8.53;;
14698;SDS011;7439;50.804;4.602;2023-03-01T13:35:59;9.87;;;8.73;;
14698;SDS011;7439;50.804;4.602;2023-03-01T13:38:37;9.47;;;8.57;;
14698;SDS011;7439;50.804;4.602;2023-03-01T13:41:06;12.47;;;9.30;;
14698;SDS011;7439;50.804;4.602;2023-03-01T13:43:34;10.13;;;9.07;;
14698;SDS011;7439;50.804;4.602;2023-03-01T13:46:09;10.33;;;9.43;;
14698;SDS011;7439;50.804;4.602;2023-03-01T13:48:39;9.60;;;8.87;;
14698;SDS011;7439;50.804;4.602;2023-03-01T13:51:07;10.37;;;9.47;;
14698;SDS011;7439;50.804;4.602;2023-03-01T13:53:36;10.07;;;9.07;;
14698;SDS011;7439;50.804;4.602;2023-03-01T13:56:07;9.60;;;8.70;;
14698;SDS011;7439;50.804;4.602;2023-03-01T13:58:43;9.30;;;8.43;;
14698;SDS011;7439;50.804;4.602;2023-03-01T14:01:20;9.70;;;8.37;;
14698;SDS011;7439;50.804;4.602;2023-03-01T14:03:48;9.07;;;8.17;;
14698;SDS011;7439;50.804;4.602;2023-03-01T14:06:16;9.50;;;8.37;;
14698;SDS011;7439;50.804;4.602;2023-03-01T14:08:45;10.13;;;9.23;;
14698;SDS011;7439;50.804;4.602;2023-03-01T14:14:00;11.00;;;9.90;;
14698;SDS011;7439;50.804;4.602;2023-03-01T14:16:35;9.20;;;8.40;;
14698;SDS011;7439;50.804;4.602;2023-03-01T14:19:14;9.00;;;8.10;;
14698;SDS011;7439;50.804;4.602;2023-03-01T14:21:42;13.17;;;8.63;;
14698;SDS011;7439;50.804;4.602;2023-03-01T14:24:15;15.83;;;11.87;;
14698;SDS011;7439;50.804;4.602;2023-03-01T14:26:43;11.23;;;10.13;;
14698;SDS011;7439;50.804;4.602;2023-03-01T14:29:23;15.23;;;11.00;;
14698;SDS011;7439;50.804;4.602;2023-03-01T14:31:52;11.23;;;10.17;;
14698;SDS011;7439;50.804;4.602;2023-03-01T14:34:20;12.77;;;11.03;;
14698;SDS011;7439;50.804;4.602;2023-03-01T14:36:47;11.87;;;10.77;;
14698;SDS011;7439;50.804;4.602;2023-03-01T14:39:19;12.13;;;10.50;;
14698;SDS011;7439;50.804;4.602;2023-03-01T14:41:47;12.50;;;11.30;;
14698;SDS011;7439;50.804;4.602;2023-03-01T14:44:16;12.13;;;10.60;;
14698;SDS011;7439;50.804;4.602;2023-03-01T14:46:45;13.00;;;10.73;;
14698;SDS011;7439;50.804;4.602;2023-03-01T14:49:15;11.53;;;10.33;;
14698;SDS011;7439;50.804;4.602;2023-03-01T14:51:46;11.70;;;9.67;;
14698;SDS011;7439;50.804;4.602;2023-03-01T14:54:19;11.00;;;9.90;;
14698;SDS011;7439;50.804;4.602;2023-03-01T14:56:48;12.90;;;10.87;;
14698;SDS011;7439;50.804;4.602;2023-03-01T14:59:15;11.63;;;10.43;;
14698;SDS011;7439;50.804;4.602;2023-03-01T15:01:45;12.93;;;10.13;;